Terminal Aerodrome Forecast
Issued by NWS

Home | Current Version | Previous Version | Graphics & Text | Print | Product List | Glossary On
Versions: 1 2 3 4 5 6 7 8 9 10 11 12
770
FTUS43 KGRB 172330
TAFAUW
TAF
KAUW 172330Z 1800/1824 18004KT P6SM SKC
     FM180130 21004KT P6SM SKC WS020/25040KT
     FM180800 28008KT 5SM BR FEW005 WS020/30040KT
     FM181300 29006KT P6SM SCT100=

USA.gov is the U.S. government's official web portal to all federal, state and local government web resources and services.